sensor_id;sensor_type;location;lat;lon;timestamp;pressure;altitude;pressure_sealevel;temperature;humidity
79230;BME280;68663;49.122;17.544;2024-03-02T00:01:40;98626.28;;;23.89;50.79
79230;BME280;68663;49.122;17.544;2024-03-02T00:04:07;98625.03;;;23.90;50.93
79230;BME280;68663;49.122;17.544;2024-03-02T00:06:33;98622.56;;;23.92;50.79
79230;BME280;68663;49.122;17.544;2024-03-02T00:08:58;98625.72;;;23.94;50.74
79230;BME280;68663;49.122;17.544;2024-03-02T00:11:24;98621.22;;;23.96;50.71
79230;BME280;68663;49.122;17.544;2024-03-02T00:13:52;98637.25;;;23.99;50.40
79230;BME280;68663;49.122;17.544;2024-03-02T00:16:18;98621.56;;;23.98;50.87
79230;BME280;68663;49.122;17.544;2024-03-02T00:18:43;98631.72;;;23.96;50.62
79230;BME280;68663;49.122;17.544;2024-03-02T00:21:09;98626.97;;;23.93;50.71
79230;BME280;68663;49.122;17.544;2024-03-02T00:23:35;98628.19;;;23.92;50.80
79230;BME280;68663;49.122;17.544;2024-03-02T00:26:01;98626.59;;;23.91;50.84
79230;BME280;68663;49.122;17.544;2024-03-02T00:28:31;98624.78;;;23.84;51.20
79230;BME280;68663;49.122;17.544;2024-03-02T00:31:10;98629.53;;;23.87;51.07
79230;BME280;68663;49.122;17.544;2024-03-02T00:33:45;98632.34;;;23.87;51.04
79230;BME280;68663;49.122;17.544;2024-03-02T00:36:12;98623.44;;;23.89;50.88
79230;BME280;68663;49.122;17.544;2024-03-02T00:38:46;98626.28;;;23.89;51.11
79230;BME280;68663;49.122;17.544;2024-03-02T00:41:19;98626.72;;;23.87;51.13
79230;BME280;68663;49.122;17.544;2024-03-02T00:44:00;98637.91;;;23.91;50.88
79230;BME280;68663;49.122;17.544;2024-03-02T00:46:28;98635.44;;;23.93;51.23
79230;BME280;68663;49.122;17.544;2024-03-02T00:48:57;98632.16;;;23.94;51.08
79230;BME280;68663;49.122;17.544;2024-03-02T00:51:26;98638.94;;;23.97;51.02
79230;BME280;68663;49.122;17.544;2024-03-02T00:53:54;98632.94;;;23.95;51.22
79230;BME280;68663;49.122;17.544;2024-03-02T00:56:22;98629.78;;;23.93;51.20
79230;BME280;68663;49.122;17.544;2024-03-02T00:58:48;98626.59;;;23.91;51.29
79230;BME280;68663;49.122;17.544;2024-03-02T01:01:13;98625.91;;;23.87;51.33
79230;BME280;68663;49.122;17.544;2024-03-02T01:03:39;98632.47;;;23.83;51.16
79230;BME280;68663;49.122;17.544;2024-03-02T01:06:04;98628.84;;;23.83;50.68
79230;BME280;68663;49.122;17.544;2024-03-02T01:08:30;98615.53;;;23.83;50.45
79230;BME280;68663;49.122;17.544;2024-03-02T01:10:55;98628.41;;;23.85;50.09
79230;BME280;68663;49.122;17.544;2024-03-02T01:13:22;98612.25;;;23.85;50.48
79230;BME280;68663;49.122;17.544;2024-03-02T01:15:48;98620.28;;;23.87;50.29
79230;BME280;68663;49.122;17.544;2024-03-02T01:18:13;98614.53;;;23.90;50.46
79230;BME280;68663;49.122;17.544;2024-03-02T01:20:39;98618.69;;;23.86;50.50
79230;BME280;68663;49.122;17.544;2024-03-02T01:23:04;98616.41;;;23.80;50.38
79230;BME280;68663;49.122;17.544;2024-03-02T01:25:29;98618.09;;;23.78;50.58
79230;BME280;68663;49.122;17.544;2024-03-02T01:27:55;98613.59;;;23.80;50.45
79230;BME280;68663;49.122;17.544;2024-03-02T01:30:20;98618.00;;;23.81;50.38
79230;BME280;68663;49.122;17.544;2024-03-02T01:32:46;98599.47;;;23.80;50.42
79230;BME280;68663;49.122;17.544;2024-03-02T01:35:12;98597.91;;;23.79;50.47
79230;BME280;68663;49.122;17.544;2024-03-02T01:37:37;98605.13;;;23.80;50.63
79230;BME280;68663;49.122;17.544;2024-03-02T01:40:03;98599.81;;;23.82;50.71
79230;BME280;68663;49.122;17.544;2024-03-02T01:42:35;98603.00;;;23.85;50.59
79230;BME280;68663;49.122;17.544;2024-03-02T01:45:01;98595.66;;;23.87;50.34
79230;BME280;68663;49.122;17.544;2024-03-02T01:47:26;98599.63;;;23.90;50.28
79230;BME280;68663;49.122;17.544;2024-03-02T01:49:51;98587.88;;;23.91;50.16
79230;BME280;68663;49.122;17.544;2024-03-02T01:52:17;98588.66;;;23.92;50.42
79230;BME280;68663;49.122;17.544;2024-03-02T01:54:42;98582.22;;;23.91;50.16
79230;BME280;68663;49.122;17.544;2024-03-02T01:57:08;98588.78;;;23.88;50.33
79230;BME280;68663;49.122;17.544;2024-03-02T01:59:33;98579.97;;;23.86;50.26
79230;BME280;68663;49.122;17.544;2024-03-02T02:01:59;98582.19;;;23.78;50.41
79230;BME280;68663;49.122;17.544;2024-03-02T02:04:24;98579.94;;;23.73;50.54
79230;BME280;68663;49.122;17.544;2024-03-02T02:06:53;98575.41;;;23.76;50.29
79230;BME280;68663;49.122;17.544;2024-03-02T02:09:19;98581.41;;;23.78;50.55
79230;BME280;68663;49.122;17.544;2024-03-02T02:11:44;98585.03;;;23.78;50.29
79230;BME280;68663;49.122;17.544;2024-03-02T02:14:10;98588.63;;;23.79;50.47
79230;BME280;68663;49.122;17.544;2024-03-02T02:16:36;98585.81;;;23.79;50.04
79230;BME280;68663;49.122;17.544;2024-03-02T02:19:02;98584.56;;;23.80;50.29
79230;BME280;68663;49.122;17.544;2024-03-02T02:21:27;98583.69;;;23.83;50.45
79230;BME280;68663;49.122;17.544;2024-03-02T02:23:52;98589.66;;;23.85;49.97
79230;BME280;68663;49.122;17.544;2024-03-02T02:26:18;98583.91;;;23.89;50.24
79230;BME280;68663;49.122;17.544;2024-03-02T02:28:43;98585.50;;;23.90;50.12
79230;BME280;68663;49.122;17.544;2024-03-02T02:31:13;98587.97;;;23.88;50.30
79230;BME280;68663;49.122;17.544;2024-03-02T02:33:42;98596.91;;;23.86;50.20
79230;BME280;68663;49.122;17.544;2024-03-02T02:36:08;98591.34;;;23.82;50.08
79230;BME280;68663;49.122;17.544;2024-03-02T02:38:38;98595.41;;;23.81;49.89
79230;BME280;68663;49.122;17.544;2024-03-02T02:41:04;98595.53;;;23.78;50.06
79230;BME280;68663;49.122;17.544;2024-03-02T02:43:29;98582.66;;;23.77;50.32
79230;BME280;68663;49.122;17.544;2024-03-02T02:45:54;98572.16;;;23.77;50.14
79230;BME280;68663;49.122;17.544;2024-03-02T02:48:20;98577.78;;;23.77;49.88
79230;BME280;68663;49.122;17.544;2024-03-02T02:50:45;98583.44;;;23.77;50.28
79230;BME280;68663;49.122;17.544;2024-03-02T02:53:11;98584.56;;;23.80;49.99
79230;BME280;68663;49.122;17.544;2024-03-02T02:55:36;98575.66;;;23.81;50.13
79230;BME280;68663;49.122;17.544;2024-03-02T02:58:06;98572.59;;;23.76;50.29
79230;BME280;68663;49.122;17.544;2024-03-02T03:00:32;98573.94;;;23.71;50.30
79230;BME280;68663;49.122;17.544;2024-03-02T03:02:57;98575.97;;;23.71;50.45
79230;BME280;68663;49.122;17.544;2024-03-02T03:05:23;98572.69;;;23.72;50.27
79230;BME280;68663;49.122;17.544;2024-03-02T03:07:48;98571.47;;;23.73;49.96
79230;BME280;68663;49.122;17.544;2024-03-02T03:10:15;98577.56;;;23.72;50.37
79230;BME280;68663;49.122;17.544;2024-03-02T03:12:41;98573.94;;;23.71;50.28
79230;BME280;68663;49.122;17.544;2024-03-02T03:15:08;98569.88;;;23.72;50.02
79230;BME280;68663;49.122;17.544;2024-03-02T03:17:34;98564.56;;;23.74;50.03
79230;BME280;68663;49.122;17.544;2024-03-02T03:20:00;98567.75;;;23.76;50.02
79230;BME280;68663;49.122;17.544;2024-03-02T03:22:26;98562.44;;;23.78;50.11
79230;BME280;68663;49.122;17.544;2024-03-02T03:24:52;98571.25;;;23.80;49.96
79230;BME280;68663;49.122;17.544;2024-03-02T03:27:18;98574.53;;;23.79;50.35
79230;BME280;68663;49.122;17.544;2024-03-02T03:29:43;98579.38;;;23.78;49.94
79230;BME280;68663;49.122;17.544;2024-03-02T03:32:08;98571.34;;;23.77;49.96
79230;BME280;68663;49.122;17.544;2024-03-02T03:34:34;98577.09;;;23.73;50.02
79230;BME280;68663;49.122;17.544;2024-03-02T03:36:59;98568.63;;;23.73;49.95
79230;BME280;68663;49.122;17.544;2024-03-02T03:39:25;98576.31;;;23.73;49.96
79230;BME280;68663;49.122;17.544;2024-03-02T03:41:50;98576.75;;;23.71;50.02
79230;BME280;68663;49.122;17.544;2024-03-02T03:44:16;98585.22;;;23.71;50.14
79230;BME280;68663;49.122;17.544;2024-03-02T03:46:41;98576.31;;;23.73;50.07
79230;BME280;68663;49.122;17.544;2024-03-02T03:49:07;98568.97;;;23.75;49.99
79230;BME280;68663;49.122;17.544;2024-03-02T03:51:33;98576.22;;;23.76;49.83
79230;BME280;68663;49.122;17.544;2024-03-02T03:53:58;98572.16;;;23.77;49.91
79230;BME280;68663;49.122;17.544;2024-03-02T03:56:24;98578.13;;;23.79;50.11
79230;BME280;68663;49.122;17.544;2024-03-02T03:58:49;98576.09;;;23.80;49.68
79230;BME280;68663;49.122;17.544;2024-03-02T04:01:15;98587.41;;;23.80;49.77
79230;BME280;68663;49.122;17.544;2024-03-02T04:03:40;98582.19;;;23.78;49.92
79230;BME280;68663;49.122;17.544;2024-03-02T04:06:05;98586.72;;;23.76;49.84
79230;BME280;68663;49.122;17.544;2024-03-02T04:08:31;98589.97;;;23.74;49.81
79230;BME280;68663;49.122;17.544;2024-03-02T04:10:56;98592.44;;;23.72;49.78
79230;BME280;68663;49.122;17.544;2024-03-02T04:13:21;98590.06;;;23.71;49.85
79230;BME280;68663;49.122;17.544;2024-03-02T04:15:47;98603.41;;;23.70;49.89
79230;BME280;68663;49.122;17.544;2024-03-02T04:18:13;98598.53;;;23.71;50.04
79230;BME280;68663;49.122;17.544;2024-03-02T04:20:38;98597.75;;;23.70;50.17
79230;BME280;68663;49.122;17.544;2024-03-02T04:23:03;98596.97;;;23.70;49.86
79230;BME280;68663;49.122;17.544;2024-03-02T04:25:29;98603.41;;;23.70;49.89
79230;BME280;68663;49.122;17.544;2024-03-02T04:27:54;98617.41;;;23.74;49.76
79230;BME280;68663;49.122;17.544;2024-03-02T04:30:19;98605.66;;;23.75;49.93
79230;BME280;68663;49.122;17.544;2024-03-02T04:32:45;98603.19;;;23.77;50.02
79230;BME280;68663;49.122;17.544;2024-03-02T04:35:14;98604.34;;;23.80;49.98
79230;BME280;68663;49.122;17.544;2024-03-02T04:37:39;98600.38;;;23.77;49.74
79230;BME280;68663;49.122;17.544;2024-03-02T04:40:05;98591.13;;;23.77;49.93
79230;BME280;68663;49.122;17.544;2024-03-02T04:42:33;98594.84;;;23.74;49.70
79230;BME280;68663;49.122;17.544;2024-03-02T04:44:59;98598.88;;;23.73;49.77
79230;BME280;68663;49.122;17.544;2024-03-02T04:47:24;98605.31;;;23.73;50.00
79230;BME280;68663;49.122;17.544;2024-03-02T04:49:50;98609.38;;;23.72;50.13
79230;BME280;68663;49.122;17.544;2024-03-02T04:52:15;98614.25;;;23.72;50.03
79230;BME280;68663;49.122;17.544;2024-03-02T04:54:41;98619.09;;;23.71;50.12
79230;BME280;68663;49.122;17.544;2024-03-02T04:57:25;98613.44;;;23.71;50.00
79230;BME280;68663;49.122;17.544;2024-03-02T04:59:51;98610.19;;;23.73;50.24
79230;BME280;68663;49.122;17.544;2024-03-02T05:02:16;98608.50;;;23.75;49.99
79230;BME280;68663;49.122;17.544;2024-03-02T05:04:42;98612.47;;;23.78;49.83
79230;BME280;68663;49.122;17.544;2024-03-02T05:07:07;98609.19;;;23.79;49.74
79230;BME280;68663;49.122;17.544;2024-03-02T05:09:33;98610.78;;;23.80;49.58
79230;BME280;68663;49.122;17.544;2024-03-02T05:11:58;98605.91;;;23.81;49.85
79230;BME280;68663;49.122;17.544;2024-03-02T05:14:44;98612.34;;;23.81;49.67
79230;BME280;68663;49.122;17.544;2024-03-02T05:17:09;98609.28;;;23.76;50.04
79230;BME280;68663;49.122;17.544;2024-03-02T05:19:34;98609.94;;;23.67;50.25
79230;BME280;68663;49.122;17.544;2024-03-02T05:22:00;98613.44;;;23.71;49.85
79230;BME280;68663;49.122;17.544;2024-03-02T05:24:25;98613.44;;;23.71;49.88
79230;BME280;68663;49.122;17.544;2024-03-02T05:26:53;98613.09;;;23.69;49.90
79230;BME280;68663;49.122;17.544;2024-03-02T05:29:18;98613.53;;;23.68;49.84
79230;BME280;68663;49.122;17.544;2024-03-02T05:31:44;98613.53;;;23.68;50.12
79230;BME280;68663;49.122;17.544;2024-03-02T05:34:09;98623.16;;;23.70;49.94
79230;BME280;68663;49.122;17.544;2024-03-02T05:36:34;98634.44;;;23.70;49.72
79230;BME280;68663;49.122;17.544;2024-03-02T05:39:00;98630.38;;;23.71;49.83
79230;BME280;68663;49.122;17.544;2024-03-02T05:41:26;98639.19;;;23.73;49.77
79230;BME280;68663;49.122;17.544;2024-03-02T05:43:51;98635.94;;;23.75;49.68
79230;BME280;68663;49.122;17.544;2024-03-02T05:46:17;98635.81;;;23.78;49.64
79230;BME280;68663;49.122;17.544;2024-03-02T05:48:42;98637.41;;;23.79;49.73
79230;BME280;68663;49.122;17.544;2024-03-02T05:51:07;98643.94;;;23.76;50.02
79230;BME280;68663;49.122;17.544;2024-03-02T05:53:33;98640.97;;;23.67;50.06
79230;BME280;68663;49.122;17.544;2024-03-02T05:55:59;98650.69;;;23.66;50.28
79230;BME280;68663;49.122;17.544;2024-03-02T05:58:24;98652.25;;;23.67;49.92
79230;BME280;68663;49.122;17.544;2024-03-02T06:00:49;98645.38;;;23.68;50.23
79230;BME280;68663;49.122;17.544;2024-03-02T06:03:15;98654.28;;;23.67;50.32
79230;BME280;68663;49.122;17.544;2024-03-02T06:05:40;98660.72;;;23.67;50.26
79230;BME280;68663;49.122;17.544;2024-03-02T06:08:06;98661.53;;;23.68;50.50
79230;BME280;68663;49.122;17.544;2024-03-02T06:10:32;98659.06;;;23.70;50.77
79230;BME280;68663;49.122;17.544;2024-03-02T06:12:58;98659.41;;;23.72;50.63
79230;BME280;68663;49.122;17.544;2024-03-02T06:15:24;98652.06;;;23.74;50.50
79230;BME280;68663;49.122;17.544;2024-03-02T06:17:49;98654.91;;;23.74;50.42
79230;BME280;68663;49.122;17.544;2024-03-02T06:20:16;98655.34;;;23.73;50.64
79230;BME280;68663;49.122;17.544;2024-03-02T06:22:42;98658.59;;;23.71;50.53
79230;BME280;68663;49.122;17.544;2024-03-02T06:25:07;98663.91;;;23.69;50.65
79230;BME280;68663;49.122;17.544;2024-03-02T06:27:32;98659.84;;;23.70;50.94
79230;BME280;68663;49.122;17.544;2024-03-02T06:29:58;98664.34;;;23.68;51.12
79230;BME280;68663;49.122;17.544;2024-03-02T06:32:23;98662.31;;;23.68;51.72
79230;BME280;68663;49.122;17.544;2024-03-02T06:34:50;98667.50;;;23.70;51.50
79230;BME280;68663;49.122;17.544;2024-03-02T06:37:15;98675.53;;;23.71;51.63
79230;BME280;68663;49.122;17.544;2024-03-02T06:39:41;98680.28;;;23.74;51.78
79230;BME280;68663;49.122;17.544;2024-03-02T06:42:06;98679.41;;;23.77;52.26
79230;BME280;68663;49.122;17.544;2024-03-02T06:44:32;98680.09;;;23.81;53.30
79230;BME280;68663;49.122;17.544;2024-03-02T06:46:57;98682.94;;;23.81;55.39
79230;BME280;68663;49.122;17.544;2024-03-02T06:49:22;98689.47;;;23.78;56.95
79230;BME280;68663;49.122;17.544;2024-03-02T06:51:48;98686.72;;;23.75;56.13
79230;BME280;68663;49.122;17.544;2024-03-02T06:54:13;98689.56;;;23.75;55.46
79230;BME280;68663;49.122;17.544;2024-03-02T06:56:38;98686.72;;;23.75;54.35
79230;BME280;68663;49.122;17.544;2024-03-02T06:59:04;98705.25;;;23.76;54.15
79230;BME280;68663;49.122;17.544;2024-03-02T07:01:29;98698.81;;;23.75;53.40
79230;BME280;68663;49.122;17.544;2024-03-02T07:03:55;98702.44;;;23.76;53.21
79230;BME280;68663;49.122;17.544;2024-03-02T07:06:20;98705.16;;;23.79;53.31
79230;BME280;68663;49.122;17.544;2024-03-02T07:08:45;98706.75;;;23.80;53.19
79230;BME280;68663;49.122;17.544;2024-03-02T07:11:11;98698.72;;;23.79;54.01
79230;BME280;68663;49.122;17.544;2024-03-02T07:13:36;98698.81;;;23.75;53.20
79230;BME280;68663;49.122;17.544;2024-03-02T07:16:02;98697.56;;;23.76;53.42
79230;BME280;68663;49.122;17.544;2024-03-02T07:18:36;98698.81;;;23.75;53.10
79230;BME280;68663;49.122;17.544;2024-03-02T07:21:16;98700.41;;;23.76;52.93
79230;BME280;68663;49.122;17.544;2024-03-02T07:23:41;98702.44;;;23.76;52.70
79230;BME280;68663;49.122;17.544;2024-03-02T07:26:07;98701.97;;;23.77;52.52
79230;BME280;68663;49.122;17.544;2024-03-02T07:28:32;98699.50;;;23.79;52.54
79230;BME280;68663;49.122;17.544;2024-03-02T07:31:02;98701.09;;;23.80;52.30
79230;BME280;68663;49.122;17.544;2024-03-02T07:33:32;98699.50;;;23.79;52.73
79230;BME280;68663;49.122;17.544;2024-03-02T07:35:58;98701.28;;;23.73;52.84
79230;BME280;68663;49.122;17.544;2024-03-02T07:38:28;98711.34;;;23.74;52.63
79230;BME280;68663;49.122;17.544;2024-03-02T07:40:54;98704.81;;;23.77;53.93
79230;BME280;68663;49.122;17.544;2024-03-02T07:43:20;98709.66;;;23.77;54.02
79230;BME280;68663;49.122;17.544;2024-03-02T07:45:46;98713.28;;;23.77;53.59
79230;BME280;68663;49.122;17.544;2024-03-02T07:48:12;98710.00;;;23.79;53.53
79230;BME280;68663;49.122;17.544;2024-03-02T07:50:37;98715.56;;;23.82;53.05
79230;BME280;68663;49.122;17.544;2024-03-02T07:53:04;98719.53;;;23.85;52.56
79230;BME280;68663;49.122;17.544;2024-03-02T07:55:30;98721.13;;;23.86;52.96
79230;BME280;68663;49.122;17.544;2024-03-02T07:57:56;98725.16;;;23.85;53.00
79230;BME280;68663;49.122;17.544;2024-03-02T08:00:23;98726.41;;;23.84;52.47
79230;BME280;68663;49.122;17.544;2024-03-02T08:02:49;98719.63;;;23.81;52.36
79230;BME280;68663;49.122;17.544;2024-03-02T08:05:16;98724.81;;;23.83;52.55
79230;BME280;68663;49.122;17.544;2024-03-02T08:07:43;98728.00;;;23.85;55.11
79230;BME280;68663;49.122;17.544;2024-03-02T08:10:10;98731.59;;;23.86;55.76
79230;BME280;68663;49.122;17.544;2024-03-02T08:12:36;98727.47;;;23.90;56.56
79230;BME280;68663;49.122;17.544;2024-03-02T08:15:01;98728.25;;;23.91;56.30
79230;BME280;68663;49.122;17.544;2024-03-02T08:17:26;98735.94;;;23.90;56.00
79230;BME280;68663;49.122;17.544;2024-03-02T08:19:52;98725.88;;;23.89;55.89
79230;BME280;68663;49.122;17.544;2024-03-02T08:22:18;98743.59;;;23.90;55.42
79230;BME280;68663;49.122;17.544;2024-03-02T08:24:44;98735.94;;;23.90;54.96
79230;BME280;68663;49.122;17.544;2024-03-02T08:27:09;98734.69;;;23.91;54.70
79230;BME280;68663;49.122;17.544;2024-03-02T08:29:35;98733.44;;;23.92;54.54
79230;BME280;68663;49.122;17.544;2024-03-02T08:32:00;98722.94;;;23.93;54.37
79230;BME280;68663;49.122;17.544;2024-03-02T08:34:26;98729.28;;;23.97;54.00
79230;BME280;68663;49.122;17.544;2024-03-02T08:36:51;98721.63;;;23.97;54.13
79230;BME280;68663;49.122;17.544;2024-03-02T08:39:17;98715.97;;;23.97;53.99
79230;BME280;68663;49.122;17.544;2024-03-02T08:41:45;98725.69;;;23.96;53.64
79230;BME280;68663;49.122;17.544;2024-03-02T08:44:10;98724.53;;;23.94;53.61
79230;BME280;68663;49.122;17.544;2024-03-02T08:46:36;98721.72;;;23.94;53.56
79230;BME280;68663;49.122;17.544;2024-03-02T08:49:02;98721.72;;;23.94;53.33
79230;BME280;68663;49.122;17.544;2024-03-02T08:51:28;98722.16;;;23.92;52.93
79230;BME280;68663;49.122;17.544;2024-03-02T08:53:53;98722.16;;;23.92;52.82
79230;BME280;68663;49.122;17.544;2024-03-02T08:56:19;98720.91;;;23.93;52.75
79230;BME280;68663;49.122;17.544;2024-03-02T08:58:45;98720.81;;;23.97;52.55
79230;BME280;68663;49.122;17.544;2024-03-02T09:01:11;98721.63;;;23.97;52.64
79230;BME280;68663;49.122;17.544;2024-03-02T09:03:37;98727.72;;;23.96;52.63
79230;BME280;68663;49.122;17.544;2024-03-02T09:06:02;98717.22;;;23.96;52.43
79230;BME280;68663;49.122;17.544;2024-03-02T09:08:28;98718.44;;;23.95;52.53
79230;BME280;68663;49.122;17.544;2024-03-02T09:10:55;98722.06;;;23.96;52.30
79230;BME280;68663;49.122;17.544;2024-03-02T09:13:21;98713.59;;;23.96;52.08
79230;BME280;68663;49.122;17.544;2024-03-02T09:15:46;98716.75;;;23.98;51.96
79230;BME280;68663;49.122;17.544;2024-03-02T09:18:11;98729.19;;;24.00;51.93
79230;BME280;68663;49.122;17.544;2024-03-02T09:20:37;98718.34;;;23.99;52.09
79230;BME280;68663;49.122;17.544;2024-03-02T09:23:02;98729.66;;;23.99;52.50
79230;BME280;68663;49.122;17.544;2024-03-02T09:25:27;98725.84;;;24.05;53.63
79230;BME280;68663;49.122;17.544;2024-03-02T09:27:53;98727.66;;;24.12;54.95
79230;BME280;68663;49.122;17.544;2024-03-02T09:30:18;98727.81;;;24.21;55.18
79230;BME280;68663;49.122;17.544;2024-03-02T09:32:43;98727.66;;;24.28;57.77
79230;BME280;68663;49.122;17.544;2024-03-02T09:35:09;98724.44;;;24.26;56.92
79230;BME280;68663;49.122;17.544;2024-03-02T09:37:35;98723.75;;;24.22;56.96
79230;BME280;68663;49.122;17.544;2024-03-02T09:40:01;98714.59;;;24.18;56.72
79230;BME280;68663;49.122;17.544;2024-03-02T09:42:26;98734.81;;;24.17;56.83
79230;BME280;68663;49.122;17.544;2024-03-02T09:44:52;98735.25;;;24.15;55.44
79230;BME280;68663;49.122;17.544;2024-03-02T09:47:18;98737.28;;;24.14;55.41
79230;BME280;68663;49.122;17.544;2024-03-02T09:49:43;98728.00;;;24.14;54.35
79230;BME280;68663;49.122;17.544;2024-03-02T09:52:10;98734.00;;;24.16;54.32
79230;BME280;68663;49.122;17.544;2024-03-02T09:54:35;98741.25;;;24.17;53.34
79230;BME280;68663;49.122;17.544;2024-03-02T09:57:02;98729.16;;;24.17;53.34
79230;BME280;68663;49.122;17.544;2024-03-02T09:59:28;98732.75;;;24.17;53.12
79230;BME280;68663;49.122;17.544;2024-03-02T10:02:02;98736.84;;;24.16;53.01
79230;BME280;68663;49.122;17.544;2024-03-02T10:04:29;98734.44;;;24.14;53.32
79230;BME280;68663;49.122;17.544;2024-03-02T10:07:10;98727.47;;;24.19;55.09
79230;BME280;68663;49.122;17.544;2024-03-02T10:09:38;98727.72;;;24.25;55.12
79230;BME280;68663;49.122;17.544;2024-03-02T10:12:05;98722.81;;;24.29;56.97
79230;BME280;68663;49.122;17.544;2024-03-02T10:14:30;98724.06;;;24.28;55.95
79230;BME280;68663;49.122;17.544;2024-03-02T10:17:02;98720.47;;;24.24;55.07
79230;BME280;68663;49.122;17.544;2024-03-02T10:19:28;98721.72;;;24.23;55.97
79230;BME280;68663;49.122;17.544;2024-03-02T10:21:57;98720.91;;;24.22;55.69
79230;BME280;68663;49.122;17.544;2024-03-02T10:24:23;98719.78;;;24.20;55.11
79230;BME280;68663;49.122;17.544;2024-03-02T10:26:49;98738.75;;;24.19;55.86
79230;BME280;68663;49.122;17.544;2024-03-02T10:29:15;98728.25;;;24.20;54.80
79230;BME280;68663;49.122;17.544;2024-03-02T10:31:42;98738.06;;;24.15;53.69
79230;BME280;68663;49.122;17.544;2024-03-02T10:34:09;98739.84;;;24.09;51.74
79230;BME280;68663;49.122;17.544;2024-03-02T10:36:36;98740.84;;;24.02;50.71
79230;BME280;68663;49.122;17.544;2024-03-02T10:39:06;98746.03;;;24.04;50.92
79230;BME280;68663;49.122;17.544;2024-03-02T10:41:33;98748.88;;;24.04;50.45
79230;BME280;68663;49.122;17.544;2024-03-02T10:44:02;98738.13;;;23.99;51.05
79230;BME280;68663;49.122;17.544;2024-03-02T10:46:29;98740.25;;;23.95;50.67
79230;BME280;68663;49.122;17.544;2024-03-02T10:48:55;98739.00;;;23.96;50.95
79230;BME280;68663;49.122;17.544;2024-03-02T10:51:21;98741.81;;;23.96;51.12
79230;BME280;68663;49.122;17.544;2024-03-02T10:53:47;98737.41;;;23.95;51.01
79230;BME280;68663;49.122;17.544;2024-03-02T10:56:16;98737.41;;;23.95;50.87
79230;BME280;68663;49.122;17.544;2024-03-02T10:58:48;98740.34;;;23.91;51.63
79230;BME280;68663;49.122;17.544;2024-03-02T11:01:16;98738.75;;;23.90;51.26
79230;BME280;68663;49.122;17.544;2024-03-02T11:03:42;98738.31;;;23.92;51.82
79230;BME280;68663;49.122;17.544;2024-03-02T11:06:11;98729.84;;;23.92;51.64
79230;BME280;68663;49.122;17.544;2024-03-02T11:08:39;98737.16;;;23.89;52.07
79230;BME280;68663;49.122;17.544;2024-03-02T11:11:15;98737.97;;;23.90;51.71
79230;BME280;68663;49.122;17.544;2024-03-02T11:13:42;98737.16;;;23.89;51.70
79230;BME280;68663;49.122;17.544;2024-03-02T11:16:21;98736.38;;;23.89;51.93
79230;BME280;68663;49.122;17.544;2024-03-02T11:18:51;98739.19;;;23.89;51.51
79230;BME280;68663;49.122;17.544;2024-03-02T11:21:17;98744.03;;;23.88;51.73
79230;BME280;68663;49.122;17.544;2024-03-02T11:23:43;98736.03;;;23.87;51.87
79230;BME280;68663;49.122;17.544;2024-03-02T11:26:22;98733.63;;;23.85;51.70
79230;BME280;68663;49.122;17.544;2024-03-02T11:28:49;98731.59;;;23.86;51.84
79230;BME280;68663;49.122;17.544;2024-03-02T11:31:14;98730.47;;;23.83;51.69
79230;BME280;68663;49.122;17.544;2024-03-02T11:33:40;98731.72;;;23.82;51.73
79230;BME280;68663;49.122;17.544;2024-03-02T11:36:09;98731.25;;;23.83;51.52
79230;BME280;68663;49.122;17.544;2024-03-02T11:38:35;98728.09;;;23.81;51.76
79230;BME280;68663;49.122;17.544;2024-03-02T11:41:10;98730.22;;;23.77;51.95
79230;BME280;68663;49.122;17.544;2024-03-02T11:43:40;98731.81;;;23.78;51.73
79230;BME280;68663;49.122;17.544;2024-03-02T11:46:07;98728.28;;;23.74;51.87
79230;BME280;68663;49.122;17.544;2024-03-02T11:48:35;98733.56;;;23.72;51.77
79230;BME280;68663;49.122;17.544;2024-03-02T11:51:01;98732.06;;;23.68;51.86
79230;BME280;68663;49.122;17.544;2024-03-02T11:53:27;98734.19;;;23.64;52.30
79230;BME280;68663;49.122;17.544;2024-03-02T11:55:58;98736.94;;;23.67;52.04
79230;BME280;68663;49.122;17.544;2024-03-02T11:58:23;98735.69;;;23.68;51.75
79230;BME280;68663;49.122;17.544;2024-03-02T12:00:53;98735.34;;;23.66;52.13
79230;BME280;68663;49.122;17.544;2024-03-02T12:03:22;98728.13;;;23.65;51.76
79230;BME280;68663;49.122;17.544;2024-03-02T12:05:53;98728.13;;;23.65;51.81
79230;BME280;68663;49.122;17.544;2024-03-02T12:08:19;98728.91;;;23.66;51.81
79230;BME280;68663;49.122;17.544;2024-03-02T12:10:56;98728.91;;;23.66;51.74
79230;BME280;68663;49.122;17.544;2024-03-02T12:13:22;98732.63;;;23.63;52.22
79230;BME280;68663;49.122;17.544;2024-03-02T12:15:53;98728.22;;;23.62;51.63
79230;BME280;68663;49.122;17.544;2024-03-02T12:18:19;98723.78;;;23.61;51.83
79230;BME280;68663;49.122;17.544;2024-03-02T12:20:44;98722.56;;;23.62;51.60
79230;BME280;68663;49.122;17.544;2024-03-02T12:23:10;98725.81;;;23.60;51.86
79230;BME280;68663;49.122;17.544;2024-03-02T12:25:35;98725.03;;;23.60;51.83
79230;BME280;68663;49.122;17.544;2024-03-02T12:28:01;98727.06;;;23.59;51.92
79230;BME280;68663;49.122;17.544;2024-03-02T12:30:29;98727.56;;;23.54;52.02
79230;BME280;68663;49.122;17.544;2024-03-02T12:32:55;98728.81;;;23.53;51.75
79230;BME280;68663;49.122;17.544;2024-03-02T12:35:21;98728.00;;;23.52;51.70
79230;BME280;68663;49.122;17.544;2024-03-02T12:37:51;98724.84;;;23.50;51.71
79230;BME280;68663;49.122;17.544;2024-03-02T12:40:18;98726.84;;;23.50;51.91
79230;BME280;68663;49.122;17.544;2024-03-02T12:42:44;98726.50;;;23.48;51.83
79230;BME280;68663;49.122;17.544;2024-03-02T12:45:11;98733.47;;;23.43;51.72
79230;BME280;68663;49.122;17.544;2024-03-02T12:47:37;98728.97;;;23.46;51.86